createdAt,value
2023-04-04T00:03:19.042Z,3.43
2023-04-04T00:07:20.486Z,4.37
2023-04-04T00:11:21.673Z,8.13
2023-04-04T00:15:22.805Z,5.17
2023-04-04T00:19:24.175Z,7.17
2023-04-04T00:23:25.248Z,4.60
2023-04-04T00:27:26.302Z,4.40
2023-04-04T00:31:27.454Z,5.83
2023-04-04T00:35:28.827Z,4.83
2023-04-04T00:39:30.056Z,4.63
2023-04-04T00:43:31.258Z,11.07
2023-04-04T00:47:33.057Z,6.63
2023-04-04T00:51:34.116Z,4.70
2023-04-04T00:55:39.131Z,5.33
2023-04-04T00:59:40.886Z,9.77
2023-04-04T01:03:42.264Z,5.40
2023-04-04T01:07:43.216Z,8.60
2023-04-04T01:11:44.334Z,5.47
2023-04-04T01:15:45.646Z,6.37
2023-04-04T01:19:50.506Z,6.03
2023-04-04T01:23:55.300Z,9.90
2023-04-04T01:27:56.397Z,6.97
2023-04-04T01:32:01.308Z,8.70
2023-04-04T01:36:15.784Z,7.20
2023-04-04T01:40:21.291Z,6.43
2023-04-04T01:44:23.734Z,6.00
2023-04-04T01:48:25.374Z,7.03
2023-04-04T01:52:26.440Z,6.83
2023-04-04T01:56:27.388Z,7.57
2023-04-04T02:00:28.461Z,6.97
2023-04-04T02:04:29.900Z,8.60
2023-04-04T02:08:30.880Z,6.97
2023-04-04T02:12:31.843Z,7.63
2023-04-04T02:16:33.193Z,7.07
2023-04-04T02:20:34.582Z,7.80
2023-04-04T02:24:35.664Z,7.77
2023-04-04T02:28:36.818Z,7.93
2023-04-04T02:32:37.810Z,7.57
2023-04-04T02:36:38.861Z,9.03
2023-04-04T02:40:41.724Z,10.93
2023-04-04T02:44:42.929Z,9.27
2023-04-04T02:48:44.282Z,8.50
2023-04-04T02:52:45.627Z,8.50
2023-04-04T02:56:46.572Z,8.67
2023-04-04T03:00:51.503Z,8.50
2023-04-04T03:04:52.618Z,8.73
2023-04-04T03:08:53.613Z,8.37
2023-04-04T03:12:55.500Z,8.20
2023-04-04T03:16:56.949Z,8.23
2023-04-04T03:20:58.272Z,8.60
2023-04-04T03:24:59.431Z,8.93
2023-04-04T03:29:02.690Z,7.63
2023-04-04T03:33:06.878Z,8.73
2023-04-04T03:37:07.872Z,7.70
2023-04-04T03:41:09.047Z,8.00
2023-04-04T03:45:10.941Z,9.90
2023-04-04T03:49:12.003Z,9.03
2023-04-04T03:53:13.098Z,8.57
2023-04-04T03:57:14.092Z,7.47
2023-04-04T04:01:15.364Z,8.27
2023-04-04T04:05:16.746Z,9.40
2023-04-04T04:09:18.379Z,9.87
2023-04-04T04:13:19.442Z,8.83
2023-04-04T04:17:20.391Z,9.40
2023-04-04T04:21:21.337Z,9.90
2023-04-04T04:25:22.936Z,9.47
2023-04-04T04:29:23.961Z,10.17
2023-04-04T04:33:30.551Z,9.80
2023-04-04T04:37:31.772Z,10.88
2023-04-04T04:41:33.008Z,10.50
2023-04-04T04:45:34.284Z,12.53
2023-04-04T04:49:35.297Z,11.30
2023-04-04T04:53:36.693Z,11.97
2023-04-04T04:57:37.932Z,17.90
2023-04-04T05:01:38.960Z,10.27
2023-04-04T05:05:42.734Z,13.40
2023-04-04T05:09:43.712Z,11.00
2023-04-04T05:13:45.036Z,10.53
2023-04-04T05:17:46.171Z,11.03
2023-04-04T05:21:47.130Z,9.67
2023-04-04T05:25:50.193Z,9.40
2023-04-04T05:29:51.358Z,17.07
2023-04-04T05:33:53.433Z,11.13
2023-04-04T05:37:54.393Z,12.00
2023-04-04T05:41:55.650Z,13.07
2023-04-04T05:45:56.853Z,10.87
2023-04-04T05:49:57.880Z,12.13
2023-04-04T05:58:11.731Z,11.17
2023-04-04T06:02:13.187Z,10.50
2023-04-04T06:06:14.259Z,7.67
2023-04-04T06:10:15.533Z,8.40
2023-04-04T06:14:16.642Z,7.53
2023-04-04T06:18:18.126Z,10.80
2023-04-04T06:22:19.166Z,10.60
2023-04-04T06:26:20.277Z,7.07
2023-04-04T06:30:21.529Z,6.43
2023-04-04T06:34:22.535Z,6.70
2023-04-04T06:38:24.245Z,8.63
2023-04-04T06:42:25.329Z,6.33
2023-04-04T06:46:26.860Z,7.20
2023-04-04T06:50:31.962Z,7.50
2023-04-04T06:54:33.647Z,8.53
2023-04-04T06:58:34.829Z,7.97
2023-04-04T07:02:36.156Z,5.63
2023-04-04T07:06:37.316Z,8.13
2023-04-04T07:10:39.857Z,8.37
2023-04-04T07:14:42.229Z,5.63
2023-04-04T07:18:43.626Z,4.83
2023-04-04T07:22:44.787Z,5.70
2023-04-04T07:26:46.186Z,4.10
2023-04-04T07:30:47.295Z,4.67
2023-04-04T07:34:49.727Z,5.00
2023-04-04T07:38:50.950Z,4.13
2023-04-04T07:42:54.157Z,4.57
2023-04-04T07:47:06.308Z,5.43
2023-04-04T07:50:59.546Z,7.37
2023-04-04T07:55:01.208Z,5.23
2023-04-04T07:59:02.407Z,5.13
2023-04-04T08:03:03.470Z,3.73
2023-04-04T08:07:04.665Z,4.07
2023-04-04T08:11:05.664Z,3.50
2023-04-04T08:15:07.362Z,6.00
2023-04-04T08:19:08.412Z,8.23
2023-04-04T08:23:09.923Z,4.90
2023-04-04T08:27:11.554Z,3.83
2023-04-04T08:31:12.789Z,5.93
2023-04-04T08:35:14.260Z,4.43
2023-04-04T08:39:15.472Z,4.93
2023-04-04T08:43:17.882Z,3.63
2023-04-04T08:47:20.741Z,4.00
2023-04-04T08:51:23.330Z,6.97
2023-04-04T08:55:25.367Z,4.20
2023-04-04T08:59:26.841Z,4.03
2023-04-04T09:03:31.426Z,3.93
2023-04-04T09:07:33.234Z,5.10
2023-04-04T09:11:35.472Z,4.23
2023-04-04T09:15:42.987Z,3.77
2023-04-04T09:19:44.002Z,4.43
2023-04-04T09:23:45.062Z,3.13
2023-04-04T09:27:48.230Z,4.27
2023-04-04T09:31:50.536Z,4.27
2023-04-04T09:36:01.748Z,3.47
2023-04-04T09:40:04.502Z,4.13
2023-04-04T09:44:06.782Z,3.97
2023-04-04T09:48:09.020Z,5.77
2023-04-04T09:52:14.042Z,5.03
2023-04-04T09:56:15.321Z,4.97
2023-04-04T10:00:19.419Z,3.73
2023-04-04T10:04:21.051Z,7.87
2023-04-04T10:08:23.206Z,4.33
2023-04-04T10:12:25.566Z,4.90
2023-04-04T10:16:32.693Z,4.23
2023-04-04T10:20:34.063Z,4.00
2023-04-04T10:24:35.649Z,4.97
2023-04-04T10:28:37.072Z,3.80
2023-04-04T10:32:51.005Z,3.70
2023-04-04T10:36:56.727Z,3.40
2023-04-04T10:41:00.312Z,4.07
2023-04-04T10:45:13.140Z,3.73
2023-04-04T10:49:05.406Z,3.40
2023-04-04T10:53:07.800Z,3.37
2023-04-04T10:57:10.388Z,3.23
2023-04-04T11:01:14.611Z,3.83
2023-04-04T11:05:38.285Z,4.17
2023-04-04T11:09:58.227Z,3.63
2023-04-04T11:14:01.188Z,5.73
2023-04-04T11:18:17.968Z,3.80
2023-04-04T11:22:10.323Z,5.80
2023-04-04T11:26:11.630Z,4.83
2023-04-04T11:30:13.838Z,4.37
2023-04-04T11:34:21.434Z,3.93
2023-04-04T11:38:22.468Z,6.50
2023-04-04T11:42:24.438Z,3.30
2023-04-04T11:46:28.647Z,3.70
2023-04-04T11:50:40.447Z,4.83
2023-04-04T11:54:43.575Z,5.00
2023-04-04T11:58:47.192Z,5.43
2023-04-04T12:02:48.781Z,5.40
2023-04-04T12:06:52.531Z,4.07
2023-04-04T12:10:53.754Z,5.97
2023-04-04T12:15:03.419Z,4.27
2023-04-04T12:19:02.653Z,5.50
2023-04-04T12:23:04.181Z,5.03
2023-04-04T12:27:06.256Z,6.00
2023-04-04T12:31:08.392Z,4.27
2023-04-04T12:35:11.669Z,6.53
2023-04-04T12:39:15.352Z,4.77
2023-04-04T12:43:17.302Z,4.57
2023-04-04T12:47:20.388Z,5.57
2023-04-04T12:51:23.564Z,4.93
2023-04-04T12:55:24.922Z,5.87
2023-04-04T12:59:28.873Z,6.63
2023-04-04T13:03:30.260Z,5.80
2023-04-04T13:07:34.484Z,6.37
2023-04-04T13:12:01.241Z,5.53
2023-04-04T13:16:05.754Z,5.07
2023-04-04T13:20:08.297Z,5.27
2023-04-04T13:24:09.548Z,6.57
2023-04-04T13:28:11.262Z,7.00
2023-04-04T13:32:12.362Z,4.87
2023-04-04T13:36:13.568Z,5.50
2023-04-04T13:40:14.930Z,7.20
2023-04-04T13:44:16.169Z,7.00
2023-04-04T13:48:17.120Z,5.77
2023-04-04T13:52:18.141Z,7.67
2023-04-04T13:56:19.658Z,5.47
2023-04-04T14:00:21.714Z,5.33
2023-04-04T14:04:24.161Z,5.30
2023-04-04T14:08:25.595Z,6.77
2023-04-04T14:12:27.236Z,4.07
2023-04-04T14:16:28.236Z,7.00
2023-04-04T14:20:29.358Z,6.50
2023-04-04T14:24:30.503Z,7.00
2023-04-04T14:28:31.962Z,5.63
2023-04-04T14:32:34.071Z,5.20
2023-04-04T14:36:36.133Z,7.37
2023-04-04T14:40:37.411Z,7.67
2023-04-04T14:44:38.505Z,6.97
2023-04-04T14:48:39.967Z,6.93
2023-04-04T14:52:41.375Z,5.87
2023-04-04T14:56:42.371Z,6.53
2023-04-04T15:00:45.442Z,5.77
2023-04-04T15:04:46.536Z,6.40
2023-04-04T15:08:47.619Z,5.70
2023-04-04T15:12:48.661Z,6.13
2023-04-04T15:16:49.866Z,6.07
2023-04-04T15:20:51.043Z,6.60
2023-04-04T15:24:52.000Z,6.33
2023-04-04T15:28:53.232Z,6.53
2023-04-04T15:32:55.981Z,5.00
2023-04-04T15:36:59.024Z,5.33
2023-04-04T15:41:00.172Z,5.77
2023-04-04T15:45:01.157Z,5.37
2023-04-04T15:49:03.461Z,7.53
2023-04-04T15:53:04.485Z,6.17
2023-04-04T15:57:05.690Z,6.43
2023-04-04T16:01:07.044Z,6.00
2023-04-04T16:05:08.481Z,6.60
2023-04-04T16:09:09.454Z,6.40
2023-04-04T16:13:10.856Z,5.80
2023-04-04T16:17:11.835Z,5.87
2023-04-04T16:21:13.660Z,6.10
2023-04-04T16:25:15.210Z,6.33
2023-04-04T16:29:17.850Z,6.20
2023-04-04T16:33:22.776Z,7.13
2023-04-04T16:37:24.665Z,5.50
2023-04-04T16:41:26.597Z,5.97
2023-04-04T16:45:27.824Z,4.40
2023-04-04T16:49:29.181Z,6.20
2023-04-04T16:53:30.146Z,6.37
2023-04-04T16:57:31.124Z,6.93
2023-04-04T17:01:32.183Z,5.37
2023-04-04T17:05:33.310Z,8.00
2023-04-04T17:09:35.133Z,7.23
2023-04-04T17:13:36.816Z,5.50
2023-04-04T17:17:38.039Z,8.77
2023-04-04T17:21:39.020Z,7.83
2023-04-04T17:25:40.239Z,4.67
2023-04-04T17:29:41.293Z,6.00
2023-04-04T17:33:42.636Z,6.17
2023-04-04T17:37:43.612Z,6.97
2023-04-04T17:41:48.152Z,8.03
2023-04-04T17:45:49.208Z,11.67
2023-04-04T17:49:53.600Z,10.07
2023-04-04T17:53:54.692Z,7.63
2023-04-04T17:57:56.580Z,9.93
2023-04-04T18:01:58.145Z,8.37
2023-04-04T18:05:59.825Z,7.00
2023-04-04T18:10:00.952Z,8.13
2023-04-04T18:14:03.561Z,7.83
2023-04-04T18:18:05.609Z,7.57
2023-04-04T18:22:06.873Z,10.93
2023-04-04T18:26:07.838Z,11.60
2023-04-04T18:30:09.240Z,7.97
2023-04-04T18:34:12.619Z,7.60
2023-04-04T18:38:13.670Z,6.97
2023-04-04T18:42:15.051Z,11.87
2023-04-04T18:46:16.074Z,12.60
2023-04-04T18:50:18.065Z,8.17
2023-04-04T18:54:19.113Z,8.00
2023-04-04T18:58:20.628Z,8.27
2023-04-04T19:02:21.724Z,7.13
2023-04-04T19:06:29.126Z,8.37
2023-04-04T19:10:30.462Z,6.57
2023-04-04T19:14:31.641Z,8.33
2023-04-04T19:18:32.652Z,11.33
2023-04-04T19:22:33.751Z,13.50
2023-04-04T19:26:34.993Z,14.00
2023-04-04T19:30:40.296Z,12.47
2023-04-04T19:34:42.551Z,10.87
2023-04-04T19:38:45.630Z,7.80
2023-04-04T19:42:47.060Z,9.93
2023-04-04T19:46:48.533Z,18.03
2023-04-04T19:50:49.972Z,20.87
2023-04-04T19:54:50.986Z,27.90
2023-04-04T19:58:57.738Z,34.83
2023-04-04T20:03:02.771Z,24.57
2023-04-04T20:07:03.916Z,19.73
2023-04-04T20:11:06.392Z,30.63
2023-04-04T20:15:11.286Z,20.03
2023-04-04T20:19:13.009Z,18.37
2023-04-04T20:23:15.828Z,14.47
2023-04-04T20:27:23.684Z,14.97
2023-04-04T20:31:26.051Z,18.67
2023-04-04T20:35:31.896Z,18.03
2023-04-04T20:39:48.058Z,14.27
2023-04-04T20:43:52.263Z,12.90
2023-04-04T20:47:56.765Z,13.60
2023-04-04T20:51:57.732Z,10.80
2023-04-04T20:56:00.806Z,8.30
2023-04-04T21:00:04.192Z,8.17
2023-04-04T21:04:05.276Z,7.67
2023-04-04T21:08:26.356Z,9.50
2023-04-04T21:12:27.493Z,10.03
2023-04-04T21:16:29.319Z,16.87
2023-04-04T21:20:49.386Z,13.07
2023-04-04T21:24:50.498Z,13.23
2023-04-04T21:28:51.936Z,12.13
2023-04-04T21:32:53.121Z,10.33
2023-04-04T21:37:00.527Z,9.33
2023-04-04T21:41:14.065Z,9.83
2023-04-04T21:45:15.522Z,10.77
2023-04-04T21:49:17.175Z,10.03
2023-04-04T21:53:18.402Z,9.73
2023-04-04T21:57:19.548Z,12.10
2023-04-04T22:01:21.023Z,11.43
2023-04-04T22:05:29.161Z,13.10
2023-04-04T22:09:28.460Z,14.23
2023-04-04T22:13:32.520Z,16.93
2023-04-04T22:17:34.176Z,13.93
2023-04-04T22:21:35.720Z,14.00
2023-04-04T22:25:36.804Z,12.57
2023-04-04T22:29:37.933Z,15.27
2023-04-04T22:33:39.955Z,15.43
2023-04-04T22:37:40.932Z,11.47
2023-04-04T22:41:42.089Z,9.97
2023-04-04T22:45:43.536Z,9.70
2023-04-04T22:49:50.469Z,10.43
2023-04-04T22:53:51.467Z,12.90
2023-04-04T22:57:52.559Z,11.70
2023-04-04T23:01:54.522Z,11.23
2023-04-04T23:05:55.521Z,11.73
2023-04-04T23:09:56.814Z,14.03
2023-04-04T23:13:57.795Z,13.13
2023-04-04T23:17:58.781Z,12.00
2023-04-04T23:22:00.144Z,13.40
2023-04-04T23:26:01.219Z,13.77
2023-04-04T23:30:03.866Z,15.03
2023-04-04T23:34:04.965Z,14.93
2023-04-04T23:38:06.082Z,14.87
2023-04-04T23:42:07.206Z,13.57
2023-04-04T23:46:08.324Z,16.20
2023-04-04T23:50:10.259Z,14.37
2023-04-04T23:54:12.698Z,13.40
2023-04-04T23:58:14.005Z,14.07
